Latest Weather Observations for Double Island Point

IDQ60801

Issued at 2:52 pm EST Tuesday 19 June 2018 (issued every 10 minutes, with the page automatically refreshed every 10 minutes)

About weather observations | Map of weather stations | Latest weather observations for QLD | Other Formats
Station Details ID: 040068 Name: DOUBLE ISLAND POINT LIGHTHOUSE Lat: -25.93 Lon: 153.19 Height: 95.64 m
Data from the previous 72 hours. | See also: Recent months at Double Island Point
Date/Time
EST
Temp
°C
App
Temp
°C
Dew
Point
°C
Rel
Hum
%
Delta-T
°C
Wind Press
QNH
hPa
Press
MSL
hPa
Rain since
9am
mm
Dir  Spd
km/h
Gust
km/h
Spd
kts
Gust
kts
19/02:30pm 18.4 - - - - SW 24 37 13 20 1016.9 1016.7 0.0
19/02:00pm 18.4 - - - - SSW 17 28 9 15 1017.0 1016.8 0.0
19/01:30pm 18.0 - - - - SW 26 35 14 19 1017.2 1017.0 0.0
19/01:00pm 18.1 - - - - WSW 19 28 10 15 1017.4 1017.2 0.0
19/12:30pm 17.9 - - - - SW 22 32 12 17 1017.7 1017.5 0.0
19/12:00pm 17.3 - - - - SSW 20 28 11 15 1018.1 1017.9 0.0
19/11:30am 16.4 - - - - SW 26 37 14 20 1018.6 1018.4 0.0
19/11:00am 15.9 - - - - SW 26 33 14 18 1019.0 1018.8 0.0
19/10:30am 14.9 - - - - WSW 32 41 17 22 1019.2 1019.0 0.0
19/10:00am 14.2 - - - - WSW 32 41 17 22 1019.2 1019.0 0.0
19/09:30am 13.5 - - - - SW 32 41 17 22 1018.9 1018.7 0.0
19/09:00am 12.9 - - - - SW 33 44 18 24 1018.6 1018.4 0.0
19/08:30am 12.4 - - - - SW 39 46 21 25 1018.3 1018.1 0.0
19/08:00am 12.2 - - - - SW 41 52 22 28 1018.3 1018.1 0.0
19/07:30am 11.7 - - - - WSW 39 46 21 25 1018.2 1018.0 0.0
19/07:00am 11.4 - - - - WSW 37 48 20 26 1018.1 1017.9 0.0
19/06:30am 11.4 - - - - WSW 33 43 18 23 1017.7 1017.5 0.0
19/06:00am 12.1 - - - - WSW 28 37 15 20 1017.7 1017.5 0.0
19/05:30am 11.7 - - - - WSW 32 43 17 23 1017.7 1017.5 0.0
19/05:00am 11.7 - - - - WSW 32 43 17 23 1017.5 1017.3 0.0
19/04:30am 12.0 - - - - SW 37 52 20 28 1017.4 1017.2 0.0
19/04:00am 11.9 - - - - SW 37 56 20 30 1017.4 1017.2 0.0
19/03:30am 11.8 - - - - SW 41 61 22 33 1017.4 1017.2 0.0
19/03:27am 12.0 - - - - SW 41 61 22 33 1017.3 1017.1 0.0
19/03:00am 12.1 - - - - SW 41 54 22 29 1017.1 1016.9 0.0
19/02:30am 12.1 - - - - SW 41 54 22 29 1017.3 1017.1 0.0
19/02:00am 12.3 - - - - SW 41 54 22 29 1017.4 1017.2 0.0
19/01:30am 12.2 - - - - SW 41 57 22 31 1017.5 1017.3 0.0
19/01:00am 12.4 - - - - SW 37 57 20 31 1017.7 1017.5 0.0
19/12:54am 12.5 - - - - SW 39 57 21 31 1017.8 1017.6 0.0
19/12:30am 12.7 - - - - SW 37 54 20 29 1017.7 1017.5 0.0
19/12:01am 12.8 - - - - SW 32 50 17 27 1018.1 1017.9 0.0
19/12:00am 12.8 - - - - SW 33 50 18 27 1018.1 1017.9 0.0
 
Date/Time
EST
Temp
°C
App
Temp
°C
Dew
Point
°C
Rel
Hum
%
Delta-T
°C
Wind Press
QNH
hPa
Press
MSL
hPa
Rain since
9am
mm
Dir  Spd
km/h
Gust
km/h
Spd
kts
Gust
kts
18/11:34pm 12.9 - - - - SW 37 56 20 30 1018.1 1017.9 0.0
18/11:30pm 12.9 - - - - SW 39 56 21 30 1018.1 1017.9 0.0
18/11:28pm 13.0 - - - - SW 37 56 20 30 1018.1 1017.9 0.0
18/11:07pm 12.6 - - - - SW 26 48 14 26 1018.4 1018.2 0.0
18/11:00pm 12.2 - - - - SSW 17 24 9 13 1018.7 1018.5 0.0
18/10:30pm 12.2 - - - - SW 17 28 9 15 1018.9 1018.7 0.0
18/10:00pm 12.7 - - - - SW 17 26 9 14 1019.0 1018.8 0.0
18/09:30pm 13.0 - - - - SW 19 26 10 14 1019.1 1018.9 0.0
18/09:00pm 13.0 - - - - SW 17 24 9 13 1019.1 1018.9 0.0
18/08:30pm 13.5 - - - - SW 20 26 11 14 1019.0 1018.8 0.0
18/08:00pm 13.7 - - - - SW 19 24 10 13 1019.1 1018.9 0.0
18/07:30pm 14.3 - - - - WSW 22 30 12 16 1018.6 1018.4 0.0
18/07:00pm 14.5 - - - - WSW 22 30 12 16 1018.3 1018.1 0.0
18/06:30pm 14.8 - - - - WSW 20 28 11 15 1018.2 1018.0 0.0
18/06:00pm 15.0 - - - - SW 19 26 10 14 1017.9 1017.7 0.0
18/05:30pm 14.8 - - - - WSW 13 19 7 10 1017.3 1017.1 0.0
18/05:00pm 15.7 - - - - WSW 17 24 9 13 1017.1 1016.9 0.0
18/04:30pm 16.8 - - - - WSW 17 24 9 13 1016.7 1016.5 0.0
18/04:00pm 17.3 - - - - W 22 32 12 17 1016.3 1016.1 0.0
18/03:30pm 17.4 - - - - W 26 39 14 21 1016.2 1016.0 0.0
18/03:00pm 17.7 - - - - W 17 28 9 15 1016.1 1015.9 0.0
18/02:30pm 17.6 - - - - W 17 28 9 15 1016.2 1016.0 0.0
18/02:00pm 17.0 - - - - SW 20 30 11 16 1016.6 1016.4 0.0
18/01:30pm 16.9 - - - - WSW 22 33 12 18 1016.8 1016.6 0.0
18/01:00pm 16.4 - - - - SW 20 35 11 19 1017.3 1017.1 0.0
18/12:30pm 16.6 - - - - SW 13 20 7 11 1017.7 1017.5 0.0
18/12:00pm 15.6 - - - - WSW 20 37 11 20 1018.1 1017.9 0.0
18/11:30am 15.1 - - - - WSW 22 33 12 18 1018.8 1018.6 0.0
18/11:00am 14.2 - - - - WSW 26 41 14 22 1019.0 1018.8 0.0
18/10:30am 13.6 - - - - SW 32 39 17 21 1019.3 1019.1 0.0
18/10:00am 12.8 - - - - SW 32 46 17 25 1019.5 1019.3 0.0
18/09:30am 12.2 - - - - WSW 30 48 16 26 1019.6 1019.4 0.0
18/09:28am 12.1 - - - - WSW 30 48 16 26 1019.5 1019.3 0.0
18/09:00am 11.4 - - - - WSW 24 37 13 20 1019.8 1019.6 0.0
18/08:30am 10.6 - - - - SW 17 28 9 15 1020.1 1019.9 0.0
18/08:00am 10.2 - - - - SW 17 24 9 13 1020.1 1019.9 0.0
18/07:30am 9.6 - - - - WSW 19 24 10 13 1020.0 1019.8 0.0
18/07:00am 9.5 - - - - WSW 20 24 11 13 1019.9 1019.7 0.0
18/06:30am 9.4 - - - - WSW 22 26 12 14 1019.6 1019.4 0.0
18/06:00am 9.7 - - - - SW 22 28 12 15 1019.4 1019.2 0.0
18/05:30am 10.0 - - - - SW 22 28 12 15 1019.2 1019.0 0.0
18/05:00am 10.3 - - - - WSW 22 33 12 18 1019.3 1019.1 0.0
18/04:30am 10.7 - - - - WSW 20 30 11 16 1019.2 1019.0 0.0
18/04:00am 11.1 - - - - WSW 15 24 8 13 1019.4 1019.2 0.0
18/03:30am 11.3 - - - - WSW 17 26 9 14 1019.3 1019.1 0.0
18/03:00am 11.8 - - - - SSW 11 20 6 11 1019.4 1019.2 0.0
18/02:30am 12.0 - - - - SSE 9 13 5 7 1019.3 1019.1 0.0
18/02:00am 12.3 - - - - SSE 11 19 6 10 1019.4 1019.2 0.0
18/01:30am 12.5 - - - - SSW 15 20 8 11 1019.7 1019.5 0.0
18/01:00am 12.9 - - - - S 13 20 7 11 1020.0 1019.8 0.0
18/12:30am 12.8 - - - - SSW 15 24 8 13 1020.0 1019.8 0.0
18/12:00am 13.2 - - - - SW 20 32 11 17 1020.1 1019.9 0.0
 
Date/Time
EST
Temp
°C
App
Temp
°C
Dew
Point
°C
Rel
Hum
%
Delta-T
°C
Wind Press
QNH
hPa
Press
MSL
hPa
Rain since
9am
mm
Dir  Spd
km/h
Gust
km/h
Spd
kts
Gust
kts
17/11:30pm 13.2 - - - - SW 19 24 10 13 1020.3 1020.1 0.0
17/11:00pm 13.9 - - - - SW 22 28 12 15 1020.4 1020.2 0.0
17/10:30pm 13.9 - - - - SW 20 26 11 14 1020.3 1020.1 0.0
17/10:00pm 14.4 - - - - SW 26 30 14 16 1020.1 1019.9 0.0
17/09:30pm 14.5 - - - - SW 24 28 13 15 1020.1 1019.9 0.0
17/09:00pm 15.1 - - - - WSW 22 28 12 15 1019.9 1019.7 0.0
17/08:30pm 15.3 - - - - WSW 20 26 11 14 1019.8 1019.6 0.0
17/08:00pm 15.6 - - - - WSW 19 24 10 13 1019.8 1019.6 0.0
17/07:30pm 15.7 - - - - SW 22 28 12 15 1019.4 1019.2 0.0
17/07:00pm 16.1 - - - - SW 26 30 14 16 1019.1 1018.9 0.0
17/06:30pm 16.1 - - - - SW 19 24 10 13 1018.9 1018.7 0.0
17/06:00pm 16.3 - - - - W 15 17 8 9 1018.4 1018.2 0.0
17/05:30pm 16.8 - - - - W 13 19 7 10 1017.9 1017.7 0.0
17/05:00pm 17.1 - - - - W 13 17 7 9 1017.5 1017.3 0.0
17/04:30pm 17.8 - - - - W 9 15 5 8 1017.2 1017.0 0.0
17/04:00pm 18.2 - - - - W 15 22 8 12 1017.1 1016.9 0.0
17/03:30pm 18.8 - - - - WSW 22 30 12 16 1016.7 1016.5 0.0
17/03:00pm 19.3 - - - - W 17 39 9 21 1016.7 1016.5 0.0
17/02:30pm 19.1 - - - - W 13 20 7 11 1016.6 1016.4 0.0
17/02:00pm 18.5 - - - - WNW 22 30 12 16 1016.7 1016.5 0.0
17/01:30pm 18.8 - - - - N 9 15 5 8 1017.1 1016.9 0.0
17/01:00pm 18.6 - - - - NNW 11 20 6 11 1017.5 1017.3 0.0
17/12:30pm 18.0 - - - - NW 19 26 10 14 1018.0 1017.8 0.0
17/12:00pm 16.9 - - - - W 13 22 7 12 1018.6 1018.4 0.0
17/11:30am 16.8 - - - - WSW 15 22 8 12 1019.3 1019.1 0.0
17/11:00am 16.1 - - - - WSW 13 20 7 11 1019.9 1019.7 0.0
17/10:30am 15.1 - - - - SSW 17 20 9 11 1020.1 1019.9 0.0
17/10:00am 15.1 - - - - SSW 24 32 13 17 1020.4 1020.2 0.0
17/09:30am 14.6 - - - - SSW 28 32 15 17 1020.5 1020.3 0.0
17/09:00am 14.7 - - - - SW 28 35 15 19 1020.6 1020.4 0.0
17/08:30am 15.0 - - - - SW 22 30 12 16 1020.3 1020.1 0.0
17/08:00am 15.1 - - - - WSW 22 26 12 14 1020.1 1019.9 0.0
17/07:30am 15.0 - - - - WSW 20 24 11 13 1019.7 1019.5 0.0
17/07:00am 15.6 - - - - W 17 22 9 12 1019.5 1019.3 0.0
17/06:30am 15.8 - - - - WSW 20 22 11 12 1019.2 1019.0 0.0
17/06:00am 15.9 - - - - WSW 20 24 11 13 1018.9 1018.7 0.0
17/05:30am 16.3 - - - - WSW 22 24 12 13 1018.5 1018.3 0.0
17/05:00am 16.5 - - - - WSW 24 30 13 16 1018.3 1018.1 0.0
17/04:30am 16.8 - - - - WSW 24 26 13 14 1018.2 1018.0 0.0
17/04:00am 17.3 - - - - WSW 24 26 13 14 1018.3 1018.1 0.0
17/03:30am 17.8 - - - - WSW 26 30 14 16 1018.4 1018.2 0.0
17/03:00am 16.6 - - - - W 19 24 10 13 1018.6 1018.4 0.0
17/02:30am 17.1 - - - - W 19 24 10 13 1018.8 1018.6 0.0
17/02:00am 17.2 - - - - W 19 26 10 14 1018.9 1018.7 0.0
17/01:30am 17.2 - - - - WNW 22 28 12 15 1019.2 1019.0 0.0
17/01:00am 17.3 - - - - W 24 32 13 17 1019.4 1019.2 0.0
17/12:30am 17.1 - - - - WNW 24 32 13 17 1019.5 1019.3 0.0
17/12:00am 16.9 - - - - WNW 24 30 13 16 1019.6 1019.4 0.0
 
Date/Time
EST
Temp
°C
App
Temp
°C
Dew
Point
°C
Rel
Hum
%
Delta-T
°C
Wind Press
QNH
hPa
Press
MSL
hPa
Rain since
9am
mm
Dir  Spd
km/h
Gust
km/h
Spd
kts
Gust
kts
16/11:30pm 17.1 - - - - WNW 26 32 14 17 1019.9 1019.7 0.0
16/11:00pm 17.0 - - - - WNW 20 24 11 13 1020.1 1019.9 0.0
16/10:30pm 16.9 - - - - WNW 19 20 10 11 1020.1 1019.9 0.0
16/10:00pm 17.4 - - - - NW 19 24 10 13 1020.0 1019.8 0.0
16/09:30pm 17.7 - - - - NW 19 22 10 12 1020.0 1019.8 0.0
16/09:00pm 18.4 - - - - NNW 15 28 8 15 1020.1 1019.9 0.0
16/08:30pm 18.5 - - - - NNW 13 20 7 11 1019.9 1019.7 0.0
16/08:00pm 18.3 - - - - NNW 13 19 7 10 1019.9 1019.7 0.0
16/07:30pm 18.3 - - - - N 7 9 4 5 1019.8 1019.6 0.0
16/07:00pm 18.3 - - - - N 6 9 3 5 1019.6 1019.4 0.0
16/06:30pm 18.2 - - - - NNW 7 11 4 6 1019.4 1019.2 0.0
16/06:00pm 18.0 - - - - N 6 9 3 5 1019.0 1018.8 0.0
16/05:30pm 18.0 - - - - N 7 17 4 9 1018.9 1018.7 0.0
16/05:00pm 18.1 - - - - N 7 17 4 9 1018.6 1018.4 0.0
16/04:30pm 18.8 - - - - N 9 20 5 11 1018.6 1018.4 0.0
16/04:00pm 19.3 - - - - N 11 20 6 11 1018.4 1018.2 0.0
16/03:30pm 19.6 - - - - N 9 20 5 11 1018.4 1018.2 0.0
16/03:00pm 19.4 - - - - N 11 15 6 8 1018.4 1018.2 0.0

Other Formats:

Comma delimited format used in spreadsheet applications
http://www.bom.gov.au/fwo/IDQ60801/IDQ60801.94584.axf

JavaScript Object Notation format (JSON) in row-major order
http://www.bom.gov.au/fwo/IDQ60801/IDQ60801.94584.json